createdAt,value
2022-10-26T00:01:22.758Z,33.03
2022-10-26T00:03:50.964Z,31.43
2022-10-26T00:06:21.385Z,29.20
2022-10-26T00:08:51.326Z,36.27
2022-10-26T00:11:20.698Z,32.57
2022-10-26T00:13:49.977Z,36.10
2022-10-26T00:16:21.087Z,35.07
2022-10-26T00:18:49.797Z,37.50
2022-10-26T00:21:19.186Z,35.70
2022-10-26T00:23:47.559Z,31.80
2022-10-26T00:26:17.028Z,33.63
2022-10-26T00:28:45.213Z,39.40
2022-10-26T00:31:16.467Z,33.80
2022-10-26T00:33:44.768Z,34.03
2022-10-26T00:36:16.678Z,32.90
2022-10-26T00:38:49.686Z,37.23
2022-10-26T00:41:22.089Z,36.83
2022-10-26T00:43:50.750Z,36.17
2022-10-26T00:46:23.344Z,36.53
2022-10-26T00:48:58.035Z,35.93
2022-10-26T00:51:32.789Z,36.83
2022-10-26T00:54:04.755Z,35.10
2022-10-26T00:56:36.136Z,38.43
2022-10-26T00:59:08.038Z,36.97
2022-10-26T01:01:39.626Z,37.47
2022-10-26T01:04:08.373Z,34.43
2022-10-26T01:06:38.833Z,33.40
2022-10-26T01:09:07.338Z,36.27
2022-10-26T01:11:36.776Z,36.70
2022-10-26T01:14:09.127Z,37.67
2022-10-26T01:16:57.872Z,35.23
2022-10-26T01:20:15.011Z,29.77
2022-10-26T01:22:50.878Z,30.97
2022-10-26T01:25:48.891Z,33.17
2022-10-26T01:28:34.962Z,32.33
2022-10-26T01:31:08.294Z,31.57
2022-10-26T01:33:41.011Z,34.67
2022-10-26T01:36:14.671Z,31.87
2022-10-26T01:38:53.659Z,34.17
2022-10-26T01:41:29.251Z,40.17
2022-10-26T01:44:02.324Z,40.30
2022-10-26T01:46:38.402Z,33.93
2022-10-26T01:49:11.786Z,33.53
2022-10-26T01:51:42.907Z,39.53
2022-10-26T01:54:12.319Z,39.17
2022-10-26T01:56:43.010Z,35.53
2022-10-26T01:59:37.122Z,32.73
2022-10-26T02:02:40.229Z,36.23
2022-10-26T02:05:38.724Z,39.80
2022-10-26T02:08:22.311Z,33.80
2022-10-26T02:11:03.701Z,35.37
2022-10-26T02:13:41.898Z,39.00
2022-10-26T02:16:23.142Z,37.93
2022-10-26T02:19:02.202Z,39.10
2022-10-26T02:21:37.263Z,37.10
2022-10-26T02:24:09.577Z,37.40
2022-10-26T02:26:38.511Z,38.73
2022-10-26T02:29:11.219Z,37.80
2022-10-26T02:31:41.621Z,38.87
2022-10-26T02:34:14.821Z,42.40
2022-10-26T02:36:46.103Z,38.80
2022-10-26T02:39:17.909Z,42.57
2022-10-26T02:41:47.219Z,39.70
2022-10-26T02:44:21.113Z,41.77
2022-10-26T02:46:52.289Z,41.93
2022-10-26T02:49:22.701Z,42.27
2022-10-26T02:51:55.269Z,40.17
2022-10-26T02:54:32.969Z,37.27
2022-10-26T02:57:05.780Z,42.50
2022-10-26T02:59:38.254Z,43.83
2022-10-26T03:02:07.029Z,40.53
2022-10-26T03:04:36.954Z,39.63
2022-10-26T03:07:05.050Z,46.10
2022-10-26T03:09:33.201Z,40.87
2022-10-26T03:12:01.300Z,50.93
2022-10-26T03:14:29.394Z,44.50
2022-10-26T03:16:57.478Z,45.00
2022-10-26T03:19:25.889Z,51.67
2022-10-26T03:21:55.309Z,45.53
2022-10-26T03:24:23.406Z,46.23
2022-10-26T03:26:51.499Z,49.13
2022-10-26T03:29:19.610Z,46.10
2022-10-26T03:31:48.846Z,46.47
2022-10-26T03:34:16.894Z,47.90
2022-10-26T03:40:58.060Z,51.43
2022-10-26T03:43:26.354Z,50.43
2022-10-26T03:45:54.679Z,48.70
2022-10-26T03:48:22.997Z,48.93
2022-10-26T03:50:51.130Z,46.90
2022-10-26T03:53:19.379Z,46.73
2022-10-26T03:55:47.613Z,47.30
2022-10-26T03:58:17.610Z,51.40
2022-10-26T04:00:45.887Z,50.60
2022-10-26T04:03:14.047Z,45.03
2022-10-26T04:05:42.208Z,54.73
2022-10-26T04:08:10.593Z,53.03
2022-10-26T04:10:39.095Z,50.07
2022-10-26T04:13:07.214Z,51.70
2022-10-26T04:15:36.738Z,43.47
2022-10-26T04:18:05.846Z,48.03
2022-10-26T04:20:36.640Z,47.13
2022-10-26T04:23:07.490Z,50.67
2022-10-26T04:25:36.091Z,51.07
2022-10-26T04:28:06.373Z,43.53
2022-10-26T04:30:37.498Z,49.27
2022-10-26T04:33:06.826Z,52.17
2022-10-26T04:35:35.130Z,48.43
2022-10-26T04:38:06.370Z,50.77
2022-10-26T04:40:36.421Z,47.63
2022-10-26T04:43:04.585Z,52.27
2022-10-26T04:45:32.996Z,47.47
2022-10-26T04:48:05.795Z,44.13
2022-10-26T04:50:34.876Z,49.50
2022-10-26T04:53:03.352Z,52.33
2022-10-26T04:55:31.549Z,47.73
2022-10-26T04:58:01.426Z,47.70
2022-10-26T05:00:32.741Z,44.00
2022-10-26T05:03:05.124Z,43.70
2022-10-26T05:05:35.801Z,47.20
2022-10-26T05:08:04.554Z,47.70
2022-10-26T05:10:33.021Z,47.80
2022-10-26T05:13:02.257Z,53.60
2022-10-26T05:15:30.845Z,48.43
2022-10-26T05:18:02.828Z,47.07
2022-10-26T05:20:33.964Z,48.47
2022-10-26T05:23:04.839Z,46.00
2022-10-26T05:25:35.831Z,50.13
2022-10-26T05:28:06.249Z,45.57
2022-10-26T05:30:34.663Z,47.80
2022-10-26T05:33:04.561Z,45.33
2022-10-26T05:35:33.390Z,48.80
2022-10-26T05:38:02.054Z,43.47
2022-10-26T05:40:30.290Z,44.63
2022-10-26T05:43:02.872Z,40.30
2022-10-26T05:45:31.740Z,45.53
2022-10-26T05:48:02.691Z,38.87
2022-10-26T05:50:32.835Z,41.73
2022-10-26T05:53:01.270Z,43.43
2022-10-26T05:55:30.424Z,41.60
2022-10-26T05:57:59.408Z,41.97
2022-10-26T06:00:30.454Z,40.93
2022-10-26T06:03:15.046Z,44.97
2022-10-26T06:05:53.866Z,35.23
2022-10-26T06:08:24.580Z,42.63
2022-10-26T06:10:54.452Z,42.20
2022-10-26T06:13:23.919Z,42.27
2022-10-26T06:16:08.770Z,37.63
2022-10-26T06:18:47.930Z,42.33
2022-10-26T06:21:36.078Z,39.17
2022-10-26T06:24:10.548Z,39.00
2022-10-26T06:26:48.170Z,35.77
2022-10-26T06:29:29.353Z,36.27
2022-10-26T06:31:59.033Z,38.43
2022-10-26T06:34:31.708Z,32.93
2022-10-26T06:37:02.989Z,37.77
2022-10-26T06:39:37.374Z,36.77
2022-10-26T06:42:08.821Z,41.83
2022-10-26T06:44:38.450Z,37.33
2022-10-26T06:47:11.306Z,32.10
2022-10-26T06:49:44.103Z,33.70
2022-10-26T06:52:18.926Z,36.57
2022-10-26T06:54:52.718Z,35.00
2022-10-26T06:57:23.929Z,33.57
2022-10-26T06:59:55.916Z,33.87
2022-10-26T07:02:25.140Z,29.50
2022-10-26T07:04:54.435Z,32.67
2022-10-26T07:07:27.177Z,35.00
2022-10-26T07:09:55.433Z,29.60
2022-10-26T07:12:23.819Z,34.13
2022-10-26T07:14:52.004Z,27.60
2022-10-26T07:17:20.149Z,26.23
2022-10-26T07:19:51.692Z,22.47
2022-10-26T07:22:20.000Z,25.77
2022-10-26T07:24:51.415Z,25.63
2022-10-26T07:27:20.629Z,25.97
2022-10-26T07:29:48.869Z,21.03
2022-10-26T07:32:17.091Z,22.70
2022-10-26T07:34:45.343Z,23.07
2022-10-26T07:37:13.836Z,22.53
2022-10-26T07:39:42.039Z,23.00
2022-10-26T07:42:11.614Z,21.97
2022-10-26T07:44:39.849Z,20.20
2022-10-26T07:47:08.025Z,20.50
2022-10-26T07:49:36.212Z,22.10
2022-10-26T07:52:04.703Z,23.50
2022-10-26T07:54:33.315Z,18.07
2022-10-26T07:57:02.232Z,19.37
2022-10-26T07:59:32.077Z,17.33
2022-10-26T08:02:00.451Z,19.50
2022-10-26T08:04:28.788Z,16.90
2022-10-26T08:06:57.013Z,17.47
2022-10-26T08:09:25.355Z,18.70
2022-10-26T08:11:53.581Z,17.07
2022-10-26T08:14:22.259Z,17.23
2022-10-26T08:16:52.656Z,13.63
2022-10-26T08:19:21.306Z,14.80
2022-10-26T08:21:49.650Z,12.73
2022-10-26T08:24:17.763Z,15.90
2022-10-26T08:26:45.921Z,15.03
2022-10-26T08:29:14.173Z,13.57
2022-10-26T08:31:42.448Z,12.73
2022-10-26T08:34:12.150Z,14.47
2022-10-26T08:36:40.308Z,13.87
2022-10-26T08:39:10.866Z,10.40
2022-10-26T08:41:43.731Z,13.17
2022-10-26T08:44:26.104Z,13.57
2022-10-26T08:46:59.891Z,10.60
2022-10-26T08:49:39.702Z,13.80
2022-10-26T08:52:12.710Z,14.77
2022-10-26T08:54:45.579Z,9.87
2022-10-26T08:57:22.140Z,10.67
2022-10-26T08:59:57.663Z,11.60
2022-10-26T09:02:26.167Z,10.03
2022-10-26T09:04:59.377Z,9.93
2022-10-26T09:07:52.895Z,10.57
2022-10-26T09:10:37.329Z,9.80
2022-10-26T09:13:17.226Z,10.33
2022-10-26T09:16:04.475Z,12.53
2022-10-26T09:21:42.942Z,12.20
2022-10-26T09:24:16.469Z,9.10
2022-10-26T09:26:55.718Z,8.57
2022-10-26T09:29:29.976Z,10.37
2022-10-26T09:32:02.835Z,8.23
2022-10-26T09:34:38.486Z,9.80
2022-10-26T09:37:18.155Z,8.93
2022-10-26T09:39:56.584Z,6.93
2022-10-26T09:42:35.253Z,9.53
2022-10-26T09:45:14.636Z,7.97
2022-10-26T09:47:49.257Z,8.23
2022-10-26T09:50:24.467Z,7.00
2022-10-26T09:52:54.059Z,7.37
2022-10-26T09:55:22.937Z,8.17
2022-10-26T09:57:56.022Z,6.80
2022-10-26T10:00:27.198Z,8.30
2022-10-26T10:02:57.626Z,7.80
2022-10-26T10:05:50.236Z,6.87
2022-10-26T10:08:23.607Z,6.43
2022-10-26T10:11:01.755Z,6.90
2022-10-26T10:13:32.566Z,8.50
2022-10-26T10:16:06.899Z,7.10
2022-10-26T10:18:36.451Z,7.83
2022-10-26T10:21:05.986Z,6.33
2022-10-26T10:23:38.008Z,7.63
2022-10-26T10:26:10.984Z,10.80
2022-10-26T10:28:42.468Z,8.77
2022-10-26T10:31:22.836Z,8.90
2022-10-26T10:33:52.962Z,6.10
2022-10-26T10:36:24.217Z,12.27
2022-10-26T10:38:55.055Z,7.13
2022-10-26T10:41:28.644Z,10.83
2022-10-26T10:44:04.637Z,7.93
2022-10-26T10:46:33.016Z,8.50
2022-10-26T10:49:07.777Z,10.23
2022-10-26T10:51:41.580Z,6.70
2022-10-26T10:54:24.746Z,6.27
2022-10-26T10:56:55.100Z,6.03
2022-10-26T10:59:46.340Z,6.03
2022-10-26T11:03:03.392Z,5.90
2022-10-26T11:06:01.742Z,6.33
2022-10-26T11:08:36.414Z,7.00
2022-10-26T11:11:11.720Z,4.17
2022-10-26T11:13:50.140Z,3.57
2022-10-26T11:16:24.713Z,5.20
2022-10-26T11:18:59.952Z,7.27
2022-10-26T11:21:31.106Z,7.37
2022-10-26T11:24:13.255Z,6.10
2022-10-26T11:26:48.815Z,5.93
2022-10-26T11:29:31.819Z,7.93
2022-10-26T11:32:11.730Z,4.13
2022-10-26T11:34:47.419Z,5.63
2022-10-26T11:37:25.284Z,5.57
2022-10-26T11:40:05.721Z,7.33
2022-10-26T11:42:42.344Z,4.20
2022-10-26T11:45:17.723Z,6.50
2022-10-26T11:47:53.235Z,7.93
2022-10-26T11:50:24.715Z,5.57
2022-10-26T11:52:57.588Z,6.30
2022-10-26T11:55:25.805Z,7.00
2022-10-26T11:57:56.131Z,5.23
2022-10-26T12:00:24.930Z,7.97
2022-10-26T12:02:59.237Z,6.77
2022-10-26T12:05:36.892Z,4.87
2022-10-26T12:08:11.102Z,6.37
2022-10-26T12:10:43.884Z,6.00
2022-10-26T12:13:27.318Z,6.77
2022-10-26T12:16:04.338Z,6.10
2022-10-26T12:18:57.235Z,4.67
2022-10-26T12:21:29.666Z,6.00
2022-10-26T12:24:00.574Z,7.93
2022-10-26T12:26:54.995Z,5.27
2022-10-26T12:29:37.315Z,5.43
2022-10-26T12:32:45.547Z,3.63
2022-10-26T12:35:44.095Z,12.80
2022-10-26T12:38:57.710Z,5.80
2022-10-26T12:41:33.176Z,7.07
2022-10-26T12:44:25.884Z,5.00
2022-10-26T12:46:55.464Z,5.50
2022-10-26T12:49:59.565Z,8.03
2022-10-26T12:52:52.385Z,4.93
2022-10-26T12:55:56.235Z,7.13
2022-10-26T12:59:10.023Z,5.27
2022-10-26T13:02:02.063Z,6.13
2022-10-26T13:05:24.846Z,5.13
2022-10-26T13:07:55.177Z,7.25
2022-10-26T13:10:26.774Z,3.67
2022-10-26T13:12:58.388Z,5.25
2022-10-26T13:15:32.086Z,7.53
2022-10-26T13:18:13.601Z,7.32
2022-10-26T13:21:04.365Z,4.15
2022-10-26T13:23:37.467Z,5.78
2022-10-26T13:26:12.888Z,6.13
2022-10-26T13:28:51.072Z,4.30
2022-10-26T13:31:57.927Z,5.63
2022-10-26T13:34:32.202Z,6.37
2022-10-26T13:37:15.773Z,6.03
2022-10-26T13:39:48.292Z,7.70
2022-10-26T13:42:21.269Z,5.67
2022-10-26T13:44:56.014Z,6.63
2022-10-26T13:47:30.020Z,7.57
2022-10-26T13:50:06.400Z,7.03
2022-10-26T13:52:39.707Z,9.00
2022-10-26T13:55:16.162Z,5.53
2022-10-26T13:57:46.754Z,7.13
2022-10-26T14:00:21.194Z,11.13
2022-10-26T14:02:49.957Z,6.87
2022-10-26T14:05:20.416Z,5.83
2022-10-26T14:07:56.590Z,5.90
2022-10-26T14:10:29.580Z,7.27
2022-10-26T14:12:58.933Z,5.57
2022-10-26T14:15:30.887Z,8.27
2022-10-26T14:18:02.258Z,6.97
2022-10-26T14:20:33.510Z,5.73
2022-10-26T14:23:01.775Z,8.90
2022-10-26T14:25:42.692Z,7.90
2022-10-26T14:28:29.042Z,6.80
2022-10-26T14:31:16.541Z,6.43
2022-10-26T14:33:47.850Z,8.60
2022-10-26T14:36:18.614Z,7.77
2022-10-26T14:38:50.567Z,9.20
2022-10-26T14:41:19.990Z,10.20
2022-10-26T14:43:48.521Z,9.73
2022-10-26T14:46:18.989Z,10.87
2022-10-26T14:48:58.017Z,9.37
2022-10-26T14:51:31.961Z,7.70
2022-10-26T14:54:02.418Z,9.70
2022-10-26T14:56:40.953Z,8.67
2022-10-26T14:59:18.855Z,9.53
2022-10-26T15:01:53.776Z,10.67
2022-10-26T15:04:36.781Z,8.03
2022-10-26T15:07:21.240Z,8.50
2022-10-26T15:09:52.328Z,9.10
2022-10-26T15:12:31.264Z,9.47
2022-10-26T15:15:18.211Z,8.63
2022-10-26T15:17:53.199Z,9.63
2022-10-26T15:20:24.263Z,9.67
2022-10-26T15:22:56.207Z,9.20
2022-10-26T15:25:27.278Z,9.00
2022-10-26T15:27:55.773Z,10.73
2022-10-26T15:30:27.662Z,10.43
2022-10-26T15:32:56.871Z,13.10
2022-10-26T15:35:33.151Z,8.83
2022-10-26T15:38:02.777Z,13.73
2022-10-26T15:40:33.115Z,11.60
2022-10-26T15:43:02.527Z,11.20
2022-10-26T15:45:34.968Z,11.07
2022-10-26T15:48:21.216Z,11.40
2022-10-26T15:50:49.484Z,8.33
2022-10-26T15:53:22.666Z,12.73
2022-10-26T15:55:54.259Z,11.67
2022-10-26T15:58:22.877Z,11.97
2022-10-26T16:00:51.428Z,10.63
2022-10-26T16:03:23.000Z,13.27
2022-10-26T16:05:58.203Z,10.20
2022-10-26T16:08:29.273Z,10.90
2022-10-26T16:10:57.880Z,10.87
2022-10-26T16:13:26.645Z,9.37
2022-10-26T16:15:54.925Z,10.90
2022-10-26T16:18:23.139Z,8.77
2022-10-26T16:20:51.343Z,9.20
2022-10-26T16:23:19.580Z,10.00
2022-10-26T16:25:49.159Z,8.80
2022-10-26T16:28:18.560Z,9.70
2022-10-26T16:30:46.931Z,9.03
2022-10-26T16:33:15.299Z,11.27
2022-10-26T16:35:43.668Z,10.87
2022-10-26T16:38:11.926Z,9.27
2022-10-26T16:40:42.594Z,10.57
2022-10-26T16:43:12.513Z,10.97
2022-10-26T16:45:42.237Z,10.53
2022-10-26T16:48:14.943Z,9.47
2022-10-26T16:50:43.325Z,10.27
2022-10-26T16:53:11.678Z,11.53
2022-10-26T16:55:39.942Z,10.00
2022-10-26T16:58:08.483Z,12.17
2022-10-26T17:00:38.714Z,12.63
2022-10-26T17:03:07.317Z,12.33
2022-10-26T17:05:35.527Z,10.53
2022-10-26T17:08:04.089Z,10.87
2022-10-26T17:10:32.287Z,11.30
2022-10-26T17:13:00.750Z,9.67
2022-10-26T17:15:29.285Z,11.67
2022-10-26T17:17:59.005Z,13.77
2022-10-26T17:20:27.426Z,12.07
2022-10-26T17:22:58.220Z,13.60
2022-10-26T17:25:26.465Z,13.07
2022-10-26T17:27:55.439Z,13.90
2022-10-26T17:30:23.861Z,12.73
2022-10-26T17:32:52.449Z,14.33
2022-10-26T17:35:22.651Z,11.80
2022-10-26T17:37:51.886Z,11.80
2022-10-26T17:40:20.332Z,12.93
2022-10-26T17:42:48.793Z,13.23
2022-10-26T17:45:17.300Z,12.10
2022-10-26T17:47:48.375Z,13.17
2022-10-26T17:50:17.039Z,13.07
2022-10-26T17:52:46.579Z,14.07
2022-10-26T17:55:17.693Z,13.23
2022-10-26T17:57:45.895Z,14.07
2022-10-26T18:00:15.486Z,18.20
2022-10-26T18:02:43.950Z,14.20
2022-10-26T18:05:12.529Z,14.37
2022-10-26T18:07:42.995Z,16.13
2022-10-26T18:10:33.202Z,14.53
2022-10-26T18:13:01.628Z,17.03
2022-10-26T18:15:29.907Z,13.53
2022-10-26T18:17:58.538Z,13.40
2022-10-26T18:20:29.767Z,13.77
2022-10-26T18:22:58.272Z,13.97
2022-10-26T18:25:28.467Z,15.63
2022-10-26T18:27:56.900Z,13.47
2022-10-26T18:30:25.981Z,14.50
2022-10-26T18:32:54.693Z,13.53
2022-10-26T18:35:23.229Z,14.97
2022-10-26T18:37:51.712Z,14.70
2022-10-26T18:40:20.230Z,14.07
2022-10-26T18:42:49.840Z,15.07
2022-10-26T18:45:18.302Z,13.40
2022-10-26T18:47:46.577Z,15.80
2022-10-26T18:50:15.027Z,14.80
2022-10-26T18:52:44.912Z,14.17
2022-10-26T18:55:13.152Z,13.93
2022-10-26T18:57:41.479Z,15.57
2022-10-26T19:00:13.418Z,14.10
2022-10-26T19:02:41.635Z,16.50
2022-10-26T19:05:10.329Z,16.90
2022-10-26T19:07:39.426Z,15.67
2022-10-26T19:10:09.647Z,17.63
2022-10-26T19:12:37.889Z,16.23
2022-10-26T19:15:07.496Z,15.37
2022-10-26T19:17:37.033Z,17.47
2022-10-26T19:20:06.670Z,20.73
2022-10-26T19:22:34.914Z,16.63
2022-10-26T19:25:03.878Z,17.27
2022-10-26T19:27:32.232Z,17.60
2022-10-26T19:30:00.464Z,21.67
2022-10-26T19:32:29.047Z,16.63
2022-10-26T19:34:58.849Z,17.20
2022-10-26T19:37:31.209Z,18.07
2022-10-26T19:39:59.648Z,17.13
2022-10-26T19:42:29.282Z,19.07
2022-10-26T19:44:57.561Z,18.00
2022-10-26T19:47:25.790Z,16.53
2022-10-26T19:49:54.007Z,17.17
2022-10-26T19:52:23.646Z,19.43
2022-10-26T19:54:51.868Z,17.00
2022-10-26T19:57:20.062Z,18.03
2022-10-26T19:59:48.292Z,15.97
2022-10-26T20:02:16.938Z,16.47
2022-10-26T20:04:45.811Z,17.80
2022-10-26T20:07:15.659Z,16.87
2022-10-26T20:09:45.333Z,17.23
2022-10-26T20:12:13.957Z,20.67
2022-10-26T20:14:42.156Z,17.57
2022-10-26T20:17:10.319Z,18.07
2022-10-26T20:19:38.618Z,17.07
2022-10-26T20:22:06.971Z,15.97
2022-10-26T20:24:35.709Z,20.33
2022-10-26T20:27:05.470Z,16.87
2022-10-26T20:29:33.686Z,16.43
2022-10-26T20:32:02.013Z,15.57
2022-10-26T20:34:30.642Z,16.23
2022-10-26T20:36:58.815Z,18.63
2022-10-26T20:39:27.775Z,18.80
2022-10-26T20:41:57.032Z,17.53
2022-10-26T20:44:32.288Z,18.00
2022-10-26T20:47:01.134Z,19.63
2022-10-26T20:49:30.049Z,16.80
2022-10-26T20:52:20.855Z,18.47
2022-10-26T20:54:55.690Z,17.90
2022-10-26T20:57:31.711Z,17.43
2022-10-26T21:00:07.444Z,16.70
2022-10-26T21:02:35.702Z,17.33
2022-10-26T21:05:04.229Z,18.30
2022-10-26T21:07:32.400Z,19.43
2022-10-26T21:10:00.562Z,20.47
2022-10-26T21:12:28.707Z,21.43
2022-10-26T21:14:56.921Z,16.97
2022-10-26T21:17:26.506Z,16.30
2022-10-26T21:19:54.677Z,16.27
2022-10-26T21:22:23.583Z,20.50
2022-10-26T21:24:51.748Z,19.90
2022-10-26T21:27:19.901Z,16.10
2022-10-26T21:29:48.172Z,18.00
2022-10-26T21:32:16.369Z,14.60
2022-10-26T21:34:46.046Z,14.90
2022-10-26T21:37:14.199Z,16.20
2022-10-26T21:39:42.421Z,15.97
2022-10-26T21:42:10.709Z,18.13
2022-10-26T21:44:41.464Z,14.40
2022-10-26T21:47:10.403Z,15.53
2022-10-26T21:49:39.119Z,14.60
2022-10-26T21:52:09.376Z,15.20
2022-10-26T21:54:37.541Z,15.67
2022-10-26T21:57:05.867Z,13.83
2022-10-26T21:59:34.048Z,16.07
2022-10-26T22:02:02.456Z,15.97
2022-10-26T22:04:30.849Z,13.77
2022-10-26T22:06:58.959Z,13.93
2022-10-26T22:09:28.582Z,13.97
2022-10-26T22:11:56.817Z,15.40
2022-10-26T22:14:25.143Z,15.67
2022-10-26T22:16:53.339Z,12.77
2022-10-26T22:19:21.561Z,13.77
2022-10-26T22:21:50.119Z,14.43
2022-10-26T22:24:18.712Z,13.73
2022-10-26T22:26:50.024Z,11.33
2022-10-26T22:29:18.431Z,14.67
2022-10-26T22:31:46.733Z,13.37
2022-10-26T22:34:17.035Z,12.93
2022-10-26T22:36:46.048Z,12.10
2022-10-26T22:39:14.445Z,14.53
2022-10-26T22:41:42.918Z,14.20
2022-10-26T22:44:12.455Z,11.30
2022-10-26T22:46:40.726Z,10.30
2022-10-26T22:49:08.908Z,13.70
2022-10-26T22:51:37.098Z,11.07
2022-10-26T22:54:06.503Z,11.97
2022-10-26T22:56:37.147Z,10.77
2022-10-26T22:59:08.401Z,11.23
2022-10-26T23:01:41.837Z,11.33
2022-10-26T23:04:12.776Z,11.33
2022-10-26T23:06:41.716Z,13.40
2022-10-26T23:09:09.964Z,11.67
2022-10-26T23:11:38.151Z,13.47
2022-10-26T23:14:06.412Z,12.70
2022-10-26T23:16:34.585Z,14.07
2022-10-26T23:19:04.170Z,10.30
2022-10-26T23:21:32.360Z,13.13
2022-10-26T23:24:00.595Z,10.20
2022-10-26T23:26:28.870Z,12.30
2022-10-26T23:28:57.200Z,13.50
2022-10-26T23:31:28.415Z,11.70
2022-10-26T23:33:57.877Z,12.10
2022-10-26T23:36:27.460Z,14.37
2022-10-26T23:38:55.648Z,16.53
2022-10-26T23:41:23.873Z,11.13
2022-10-26T23:43:52.104Z,14.17
2022-10-26T23:46:20.354Z,13.30
2022-10-26T23:48:48.541Z,19.80
2022-10-26T23:51:17.581Z,12.50
2022-10-26T23:53:47.129Z,15.60
2022-10-26T23:56:15.288Z,12.83
2022-10-26T23:58:43.437Z,15.20
